Flight Track Log - Related Links

Times and Time Zones

All times are in EDT time to prevent confusion due to time zone crossing. See the SSX933 flight status page for this flight to view local times or setup timezone preferences in your user account.

Time Position Orientation Groundspeed Altitude Reporting Facility
EDT Latitude Longitude Course Direction KTS MPH feet Rate Location/Type
Sat 03:11:46 PM 39.8065 -104.6522 285° West  Level FlightAware Approximate
Sat 03:11:53 PM 39.8333 -104.7833 252° West 204 235 6,900  Level Denver TRACON
Sat 03:12:54 PM 39.8167 -104.8500 255° West 224 258 9,000 2,146 Climbing Denver TRACON
Sat 03:13:56 PM 39.8000 -104.9333 230° Southwest 214 246 11,300 2,222 Climbing Denver TRACON
Sat 03:15:09 PM 39.7492 -105.0122 240° Southwest 210 242 14,000 1,940 Climbing Denver Center
Sat 03:16:09 PM 39.7186 -105.0803 269° West 223 257 15,600 1,500 Climbing Denver Center
Sat 03:17:09 PM 39.7175 -105.1586 268° West 218 251 17,000 694 Climbing Denver Center
Sat 03:18:10 PM 39.7144 -105.2558 268° West 273 314 17,000  Level Denver Center
Sat 03:19:09 PM 39.7114 -105.3558 267° West 282 325 17,000  Level Denver Center
Sat 03:21:10 PM 39.7025 -105.5422 267° West 272 313 17,000 265 Level Denver Center
Sat 03:22:10 PM 39.6989 -105.6286 261° West 256 295 17,800 1,700 Climbing Denver Center
Sat 03:23:10 PM 39.6892 -105.7042 256° West 235 270 20,400 1,900 Climbing Denver Center
Sat 03:24:10 PM 39.6750 -105.7772 254° West 216 249 21,600 1,000 Climbing Denver Center
Sat 03:25:10 PM 39.6586 -105.8503 253° West 211 243 22,400 706 Climbing Denver Center
Sat 03:26:09 PM 39.6444 -105.9122 256° West 206 237 23,000 450 Climbing Denver Center
Sat 03:27:10 PM 39.6281 -105.9961 255° West 228 262 23,300 500 Climbing Denver Center
Sat 03:28:09 PM 39.6097 -106.0850 258° West 247 284 24,000 350 Climbing Denver Center
Sat 03:29:10 PM 39.5933 -106.1822 255° West 247 284 24,000  Level Denver Center
Sat 03:30:10 PM 39.5747 -106.2711 256° West 252 290 24,000 -750 Level Denver Center
Sat 03:31:10 PM 39.5581 -106.3547 254° West 257 296 22,500 -1,750 Descending Denver Center
Sat 03:32:10 PM 39.5394 -106.4383 248° West 257 296 20,500 -1,500 Descending Denver Center
Sat 03:33:10 PM 39.5144 -106.5189 256° West 244 281 19,500 -1,188 Descending Denver Center
Sat 03:33:51 PM 39.5061 -106.5619 256° West 218 251 18,500 -1,627 Descending Denver Center
Sat 03:34:09 PM 39.4997 -106.5942 251° West 233 268 17,900 -1,519 Descending Denver Center
Sat 03:35:10 PM 39.4808 -106.6669 255° West 233 268 16,500 -1,350 Descending Denver Center
Sat 03:36:09 PM 39.4639 -106.7503 288° West 240 276 15,200 -958 Descending Denver Center
Sat 03:37:09 PM 39.4867 -106.8419 288° West 235 270 14,600 -471 Descending Denver Center
Sat 03:37:51 PM 39.5011 -106.8983 270° West 245 282 14,400 -393 Descending Denver Center
Sat 03:38:10 PM 39.5011 -106.9172 215° Southwest 235 270 14,200 -532 Descending Denver Center
Sat 03:39:10 PM 39.4656 -106.9492 182° South 203 234 13,700 -655 Descending Denver Center
Sat 03:40:09 PM 39.4133 -106.9517 166° South 141 162 12,900 -700 Descending Denver Center
Sat 03:41:10 PM 39.3717 -106.9378 165° South 153 176 12,300 -1,049 Descending Denver Center
Sat 03:41:52 PM 39.3403 -106.9269 165° South 141 162 11,100 -1,729 Descending Denver Center
Sat 03:42:09 PM 39.3322 -106.9242 158° South 158 182 10,600 -1,403 Descending Denver Center
Sat 03:43:09 PM 39.2967 -106.9053 158° South 153 176 9,300 -1,300 Descending Denver Center

Login

Don't have an account? Register now (free) for customized features, flight alerts, and more!